Time;durP1;ratioP1;P1;durP2;ratioP2;P2;SDS_P1;SDS_P2;PMS_P1;PMS_P2;Temp;Humidity;BMP_temperature;BMP_pressure;BME280_temperature;BME280_humidity;BME280_pressure;Samples;Min_cycle;Max_cycle;Signal;HPM_P1;HPM_P2
2021/04/15 00:00:27;;;;;;;6.55;5.95;;;;;;;;;;5112757;28;20023;-79
2021/04/15 00:02:53;;;;;;;6.22;5.43;;;;;;;;;;5113050;28;20049;-79
2021/04/15 00:05:24;;;;;;;6.32;5.55;;;;;;;;;;5111360;28;20077;-77
2021/04/15 00:07:50;;;;;;;6.82;5.75;;;;;;;;;;5113062;28;20072;-79
2021/04/15 00:10:16;;;;;;;6.75;5.38;;;;;;;;;;5112747;28;20024;-78
2021/04/15 00:12:42;;;;;;;6.20;5.50;;;;;;;;;;5112888;28;20027;-79
2021/04/15 00:15:10;;;;;;;7.75;6.22;;;;;;;;;;5112652;28;20102;-79
2021/04/15 00:17:36;;;;;;;5.90;5.25;;;;;;;;;;5112655;28;20032;-78
2021/04/15 00:20:03;;;;;;;8.77;6.53;;;;;;;;;;5112767;28;20051;-78
2021/04/15 00:22:29;;;;;;;6.65;5.95;;;;;;;;;;5112399;28;20019;-78
2021/04/15 00:24:55;;;;;;;7.03;5.93;;;;;;;;;;5112629;28;20063;-78
2021/04/15 00:27:21;;;;;;;8.40;6.57;;;;;;;;;;5112332;28;20026;-78
2021/04/15 00:29:48;;;;;;;5.68;5.10;;;;;;;;;;5112734;28;20031;-77
2021/04/15 00:32:14;;;;;;;5.95;4.90;;;;;;;;;;5112472;28;20028;-79
2021/04/15 00:34:40;;;;;;;5.68;5.10;;;;;;;;;;5112509;28;20028;-79
2021/04/15 00:37:06;;;;;;;6.93;5.18;;;;;;;;;;5112627;28;20059;-79
2021/04/15 00:39:32;;;;;;;6.63;5.45;;;;;;;;;;5112219;28;20066;-79
2021/04/15 00:41:58;;;;;;;7.03;5.47;;;;;;;;;;5112730;28;20526;-78
2021/04/15 00:44:24;;;;;;;5.85;5.22;;;;;;;;;;5112185;28;20067;-78
2021/04/15 00:47:00;;;;;;;5.88;5.28;;;;;;;;;;5112602;28;20027;-77
2021/04/15 00:49:29;;;;;;;6.10;5.50;;;;;;;;;;5112253;28;20027;-78
2021/04/15 00:51:58;;;;;;;6.70;6.00;;;;;;;;;;5112672;28;20027;-77
2021/04/15 00:54:50;;;;;;;6.22;5.63;;;;;;;;;;5112309;28;20438;-79
2021/04/15 00:57:25;;;;;;;6.45;5.30;;;;;;;;;;5110379;28;20118;-79
2021/04/15 00:59:51;;;;;;;6.93;5.43;;;;;;;;;;5112290;28;20091;-78
2021/04/15 01:02:19;;;;;;;6.30;5.03;;;;;;;;;;5111181;28;20134;-79
2021/04/15 01:04:46;;;;;;;6.93;5.40;;;;;;;;;;5111010;28;20432;-80
2021/04/15 01:07:12;;;;;;;6.20;5.03;;;;;;;;;;5112289;28;20110;-78
2021/04/15 01:09:38;;;;;;;6.20;5.18;;;;;;;;;;5116129;28;20023;-79
2021/04/15 01:12:10;;;;;;;6.85;5.38;;;;;;;;;;5115889;28;20020;-78
2021/04/15 01:14:48;;;;;;;5.53;4.95;;;;;;;;;;5116145;28;20019;-79
2021/04/15 01:17:19;;;;;;;7.50;6.07;;;;;;;;;;5115997;28;20055;-79
2021/04/15 01:20:03;;;;;;;5.90;5.30;;;;;;;;;;5115843;28;20062;-78
2021/04/15 01:22:42;;;;;;;5.97;4.70;;;;;;;;;;5115778;28;20709;-79
2021/04/15 01:25:11;;;;;;;5.65;4.53;;;;;;;;;;5115755;28;20048;-77
2021/04/15 01:27:43;;;;;;;5.03;4.53;;;;;;;;;;5115880;28;20031;-79
2021/04/15 01:30:24;;;;;;;4.68;4.18;;;;;;;;;;5115632;28;20031;-78
2021/04/15 01:33:00;;;;;;;6.38;5.55;;;;;;;;;;5115694;28;20023;-78
2021/04/15 01:35:29;;;;;;;6.88;5.45;;;;;;;;;;5115604;28;20072;-78
2021/04/15 01:38:13;;;;;;;7.07;5.32;;;;;;;;;;5115541;28;20362;-78
2021/04/15 01:40:42;;;;;;;6.13;5.53;;;;;;;;;;5115031;28;20054;-79
2021/04/15 01:43:15;;;;;;;6.30;5.70;;;;;;;;;;5115687;28;20454;-78
2021/04/15 01:45:43;;;;;;;6.93;5.85;;;;;;;;;;5115339;28;20402;-79
2021/04/15 01:48:29;;;;;;;7.97;6.85;;;;;;;;;;5115530;28;20070;-79
2021/04/15 01:50:58;;;;;;;6.55;5.68;;;;;;;;;;5115153;28;20030;-78
2021/04/15 01:53:27;;;;;;;6.13;5.53;;;;;;;;;;5115236;28;20020;-79
2021/04/15 01:55:57;;;;;;;6.47;5.43;;;;;;;;;;5115294;28;20016;-78
2021/04/15 01:58:26;;;;;;;6.88;5.90;;;;;;;;;;5115080;28;20031;-79
2021/04/15 02:00:56;;;;;;;6.45;5.53;;;;;;;;;;5115253;28;20049;-78
2021/04/15 02:03:35;;;;;;;6.18;5.40;;;;;;;;;;5115051;28;20417;-78
2021/04/15 02:06:09;;;;;;;7.60;5.45;;;;;;;;;;5114817;27;20034;-78
2021/04/15 02:08:37;;;;;;;6.80;5.90;;;;;;;;;;5115049;28;20027;-78
2021/04/15 02:11:11;;;;;;;7.18;6.07;;;;;;;;;;5114944;28;20077;-78
2021/04/15 02:13:38;;;;;;;7.30;6.25;;;;;;;;;;5114664;28;20035;-78
2021/04/15 02:16:05;;;;;;;7.15;6.20;;;;;;;;;;5114881;28;20031;-77
2021/04/15 02:18:42;;;;;;;9.07;6.40;;;;;;;;;;5114581;28;20417;-79
2021/04/15 02:21:28;;;;;;;8.45;6.68;;;;;;;;;;5114835;28;20106;-78
2021/04/15 02:24:05;;;;;;;8.68;6.82;;;;;;;;;;5107641;28;20036;-78
2021/04/15 02:26:34;;;;;;;8.35;6.80;;;;;;;;;;5114518;28;20031;-79
2021/04/15 02:29:04;;;;;;;7.57;6.38;;;;;;;;;;5114539;28;20034;-78
2021/04/15 02:31:36;;;;;;;8.70;6.63;;;;;;;;;;5114479;28;20058;-79
2021/04/15 02:34:06;;;;;;;7.97;6.32;;;;;;;;;;5114363;28;20019;-77
2021/04/15 02:36:35;;;;;;;9.00;7.28;;;;;;;;;;5114467;28;20530;-79
2021/04/15 02:39:04;;;;;;;12.27;9.07;;;;;;;;;;5113879;28;20025;-77
2021/04/15 02:41:32;;;;;;;15.43;9.40;;;;;;;;;;5114300;28;20481;-77
2021/04/15 02:44:11;;;;;;;13.52;8.88;;;;;;;;;;5114180;28;20036;-77
2021/04/15 02:46:40;;;;;;;12.30;8.65;;;;;;;;;;5114140;28;20032;-78
2021/04/15 02:49:08;;;;;;;9.40;6.68;;;;;;;;;;5113065;28;20054;-78
2021/04/15 02:51:41;;;;;;;6.53;5.25;;;;;;;;;;5114081;28;20031;-77
2021/04/15 02:54:17;;;;;;;5.78;5.03;;;;;;;;;;5114183;28;20039;-78
2021/04/15 02:56:52;;;;;;;6.20;4.88;;;;;;;;;;5114005;28;20069;-78
2021/04/15 02:59:21;;;;;;;6.32;5.00;;;;;;;;;;5113977;28;20047;-80
2021/04/15 03:01:49;;;;;;;5.45;4.43;;;;;;;;;;5113947;28;20028;-78
2021/04/15 03:04:17;;;;;;;5.95;4.85;;;;;;;;;;5113871;28;20110;-78
2021/04/15 03:06:44;;;;;;;6.32;5.30;;;;;;;;;;5112671;28;20607;-80
2021/04/15 03:09:11;;;;;;;6.82;4.88;;;;;;;;;;5113800;28;20047;-79
2021/04/15 03:11:43;;;;;;;6.63;5.10;;;;;;;;;;5113793;28;20059;-78
2021/04/15 03:14:11;;;;;;;5.45;4.85;;;;;;;;;;5113694;28;20019;-77
2021/04/15 03:16:43;;;;;;;5.68;5.03;;;;;;;;;;5113813;28;20148;-81
2021/04/15 03:19:23;;;;;;;5.93;4.97;;;;;;;;;;5112505;28;20070;-79
2021/04/15 03:22:01;;;;;;;5.70;5.10;;;;;;;;;;5113677;28;20023;-79
2021/04/15 03:24:46;;;;;;;7.47;6.40;;;;;;;;;;5113661;28;20487;-79
2021/04/15 03:27:23;;;;;;;6.38;5.35;;;;;;;;;;5113575;28;20101;-80
2021/04/15 03:29:55;;;;;;;6.68;5.63;;;;;;;;;;5111941;28;20030;-78
2021/04/15 03:32:28;;;;;;;6.07;5.47;;;;;;;;;;5113088;28;20027;-77
2021/04/15 03:34:56;;;;;;;7.05;5.90;;;;;;;;;;5113387;28;20081;-80
2021/04/15 03:37:24;;;;;;;5.18;4.68;;;;;;;;;;5111809;28;20027;-80
2021/04/15 03:39:53;;;;;;;6.35;5.20;;;;;;;;;;5113242;28;20455;-79
2021/04/15 03:42:19;;;;;;;7.78;5.80;;;;;;;;;;5113102;28;20470;-79
2021/04/15 03:44:50;;;;;;;6.15;4.95;;;;;;;;;;5111725;28;20128;-80
2021/04/15 03:47:22;;;;;;;5.82;5.22;;;;;;;;;;5113035;28;20379;-78
2021/04/15 03:49:58;;;;;;;7.35;5.00;;;;;;;;;;5113245;28;20035;-79
2021/04/15 03:52:27;;;;;;;6.10;5.20;;;;;;;;;;5113147;28;20089;-78
2021/04/15 03:55:10;;;;;;;6.90;5.30;;;;;;;;;;5113191;28;20027;-78
2021/04/15 03:57:36;;;;;;;8.02;5.60;;;;;;;;;;5113067;28;20027;-78
2021/04/15 04:00:05;;;;;;;6.30;4.80;;;;;;;;;;5112900;28;20028;-78
2021/04/15 04:02:34;;;;;;;7.03;5.70;;;;;;;;;;5112996;28;20023;-79
2021/04/15 04:05:04;;;;;;;6.53;5.47;;;;;;;;;;5112789;28;20028;-79
2021/04/15 04:07:37;;;;;;;7.43;5.47;;;;;;;;;;5112948;28;20035;-79
2021/04/15 04:10:06;;;;;;;7.20;5.95;;;;;;;;;;5113028;28;20098;-79
2021/04/15 04:12:43;;;;;;;6.57;5.85;;;;;;;;;;5112712;28;20065;-78
2021/04/15 04:15:19;;;;;;;6.43;5.20;;;;;;;;;;5112925;28;20024;-79
2021/04/15 04:18:03;;;;;;;6.72;5.38;;;;;;;;;;5112789;28;20034;-77
2021/04/15 04:20:30;;;;;;;7.18;5.72;;;;;;;;;;5112726;28;20047;-78
2021/04/15 04:23:11;;;;;;;8.32;6.30;;;;;;;;;;5112799;28;20030;-79
2021/04/15 04:25:42;;;;;;;11.38;7.10;;;;;;;;;;5112650;28;20080;-79
2021/04/15 04:28:08;;;;;;;8.80;7.45;;;;;;;;;;5112703;28;20055;-79
2021/04/15 04:30:53;;;;;;;8.15;5.97;;;;;;;;;;5112730;28;20061;-81
2021/04/15 04:33:21;;;;;;;7.57;6.80;;;;;;;;;;5112787;28;20431;-79
2021/04/15 04:35:48;;;;;;;8.32;6.57;;;;;;;;;;5112647;28;20437;-79
2021/04/15 04:38:17;;;;;;;12.52;9.38;;;;;;;;;;5112839;28;20098;-79
2021/04/15 04:40:53;;;;;;;12.75;8.63;;;;;;;;;;5112282;28;20039;-79
2021/04/15 04:43:37;;;;;;;9.38;7.93;;;;;;;;;;5113163;28;20390;-80
2021/04/15 04:46:30;;;;;;;9.63;8.57;;;;;;;;;;5116391;28;20125;-79
2021/04/15 04:48:58;;;;;;;9.93;8.30;;;;;;;;;;5092041;28;20371;-80
2021/04/15 04:51:26;;;;;;;10.50;9.23;;;;;;;;;;5116528;28;20381;-80
2021/04/15 04:53:52;;;;;;;9.60;8.15;;;;;;;;;;5116409;28;20058;-80
2021/04/15 04:56:26;;;;;;;7.40;6.60;;;;;;;;;;5116178;28;20023;-77
2021/04/15 04:58:54;;;;;;;8.93;7.63;;;;;;;;;;5116101;28;20103;-81
2021/04/15 05:01:20;;;;;;;8.30;7.30;;;;;;;;;;5116175;28;20034;-78
2021/04/15 05:03:46;;;;;;;7.50;6.70;;;;;;;;;;5115972;28;20470;-77
2021/04/15 05:06:26;;;;;;;9.10;7.13;;;;;;;;;;5115959;28;20491;-79
2021/04/15 05:09:13;;;;;;;7.40;6.60;;;;;;;;;;5115851;28;20030;-78
2021/04/15 05:11:49;;;;;;;7.15;6.40;;;;;;;;;;5115696;28;20432;-80
2021/04/15 05:14:17;;;;;;;7.80;6.40;;;;;;;;;;5116078;28;20035;-79
2021/04/15 05:17:02;;;;;;;7.93;7.13;;;;;;;;;;5116082;28;20029;-80
2021/04/15 05:19:29;;;;;;;7.05;5.93;;;;;;;;;;5115859;28;20024;-77
2021/04/15 05:21:56;;;;;;;7.53;6.18;;;;;;;;;;5115827;28;20051;-78
2021/04/15 05:24:25;;;;;;;7.68;6.95;;;;;;;;;;5115593;28;20031;-78
2021/04/15 05:26:51;;;;;;;8.70;7.22;;;;;;;;;;5115495;28;20042;-77
2021/04/15 05:29:21;;;;;;;7.18;6.10;;;;;;;;;;5114191;28;20394;-71
2021/04/15 05:31:47;;;;;;;6.32;5.40;;;;;;;;;;5115342;28;20036;-78
2021/04/15 05:40:39;;;;;;;7.85;6.60;;;;;;;;;;5101827;28;20043;-79
2021/04/15 05:43:05;;;;;;;;;;;;;;;;;;5114949;28;20037;-79
2021/04/15 05:45:32;;;;;;;7.72;5.35;;;;;;;;;;5113383;28;19966;-79
2021/04/15 05:48:02;;;;;;;7.90;6.57;;;;;;;;;;5114870;28;20110;-79
2021/04/15 05:50:32;;;;;;;6.70;5.65;;;;;;;;;;5113424;28;20053;-79
2021/04/15 05:53:08;;;;;;;5.88;4.45;;;;;;;;;;5092963;28;20400;-80
2021/04/15 05:55:38;;;;;;;3.72;3.08;;;;;;;;;;5093527;28;20109;-80
2021/04/15 05:58:09;;;;;;;4.80;3.25;;;;;;;;;;5093797;28;20032;-83
2021/04/15 06:00:35;;;;;;;4.47;3.67;;;;;;;;;;5093056;28;20036;-80
2021/04/15 06:03:20;;;;;;;6.40;5.25;;;;;;;;;;5093518;28;20479;-82
2021/04/15 06:06:04;;;;;;;4.47;3.75;;;;;;;;;;5092069;28;20500;-79
2021/04/15 06:08:34;;;;;;;3.97;3.42;;;;;;;;;;5093332;28;20020;-81
2021/04/15 06:11:20;;;;;;;6.40;4.72;;;;;;;;;;5092028;28;20117;-79
2021/04/15 06:32:09;;;;;;;6.13;3.97;;;;;;;;;;5092715;28;20509;-81
2021/04/15 06:34:35;;;;;;;4.55;3.72;;;;;;;;;;5092674;28;20032;-79
2021/04/15 06:53:05;;;;;;;4.53;3.83;;;;;;;;;;5096167;28;20058;-81
2021/04/15 06:55:31;;;;;;;4.25;3.58;;;;;;;;;;5112601;28;20112;-84
2021/04/15 07:13:21;;;;;;;4.63;3.60;;;;;;;;;;5109365;28;20034;-80
2021/04/15 07:34:14;;;;;;;4.20;3.80;;;;;;;;;;5112004;28;20042;-81
2021/04/15 07:55:02;;;;;;;5.63;3.95;;;;;;;;;;5071080;28;20055;-80
2021/04/15 08:09:42;;;;;;;6.70;5.22;;;;;;;;;;5070697;28;20134;-80
2021/04/15 08:12:27;;;;;;;5.28;4.65;;;;;;;;;;5070590;28;20048;-81
2021/04/15 08:14:53;;;;;;;;;;;;;;;;;;5070328;28;20094;-81
2021/04/15 08:17:35;;;;;;;4.85;3.83;;;;;;;;;;5074438;28;20367;-81
2021/04/15 08:20:19;;;;;;;9.80;4.70;;;;;;;;;;5077387;28;20104;-82
2021/04/15 08:23:00;;;;;;;6.93;5.43;;;;;;;;;;5077286;28;20158;-81
2021/04/15 08:25:26;;;;;;;3.65;3.05;;;;;;;;;;5076032;28;20036;-81
2021/04/15 08:28:10;;;;;;;3.45;2.90;;;;;;;;;;5077547;28;20498;-80
2021/04/15 08:30:55;;;;;;;6.13;4.78;;;;;;;;;;5077301;28;20112;-79
2021/04/15 08:33:21;;;;;;;4.10;3.42;;;;;;;;;;5077381;28;20031;-80
2021/04/15 08:35:50;;;;;;;4.25;2.88;;;;;;;;;;5077646;28;20020;-83
2021/04/15 08:38:16;;;;;;;6.75;4.38;;;;;;;;;;5077431;28;20024;-80
2021/04/15 08:40:46;;;;;;;3.70;2.55;;;;;;;;;;5075732;28;20040;-80
2021/04/15 08:43:15;;;;;;;5.80;3.17;;;;;;;;;;5076807;28;20431;-77
2021/04/15 08:45:41;;;;;;;3.38;3.05;;;;;;;;;;5076842;28;20553;-81
2021/04/15 08:48:10;;;;;;;4.95;3.40;;;;;;;;;;5075836;28;20025;-83
2021/04/15 08:50:55;;;;;;;7.13;5.30;;;;;;;;;;5076965;28;20028;-79
2021/04/15 08:53:24;;;;;;;4.15;3.20;;;;;;;;;;5093511;28;20082;-80
2021/04/15 08:56:01;;;;;;;5.00;4.40;;;;;;;;;;5117637;28;20382;-81
2021/04/15 08:58:48;;;;;;;3.17;2.80;;;;;;;;;;5118247;28;20077;-80
2021/04/15 09:01:33;;;;;;;5.22;3.53;;;;;;;;;;5117817;28;20418;-81
2021/04/15 09:04:00;;;;;;;;;;;;;;;;;;5118544;28;20028;-82
2021/04/15 09:06:35;;;;;;;7.50;3.97;;;;;;;;;;5117611;27;19919;-81
2021/04/15 09:09:20;;;;;;;3.05;2.38;;;;;;;;;;5097086;28;20078;-80
2021/04/15 10:32:49;;;;;;;3.42;2.58;;;;;;;;;;5112979;28;20437;-78
2021/04/15 10:53:45;;;;;;;4.70;3.00;;;;;;;;;;5112695;28;20146;-83
2021/04/15 11:14:37;;;;;;;5.05;4.03;;;;;;;;;;5108528;28;20088;-79
2021/04/15 11:53:49;;;;;;;4.90;4.07;;;;;;;;;;5088086;28;20055;-81
2021/04/15 13:26:51;;;;;;;;;;;;;;;;;;5011236;28;20072;-75
2021/04/15 13:29:19;;;;;;;5.45;3.55;;;;;;;;;;5019132;28;19917;-74
2021/04/15 13:31:48;;;;;;;5.75;4.72;;;;;;;;;;5054514;28;20057;-76
2021/04/15 13:34:17;;;;;;;25.60;14.73;;;;;;;;;;5054450;28;20067;-77
2021/04/15 13:36:44;;;;;;;10.25;6.45;;;;;;;;;;5054648;28;20107;-77
2021/04/15 13:39:32;;;;;;;5.28;4.57;;;;;;;;;;5033098;28;20026;-74
2021/04/15 13:42:00;;;;;;;6.38;4.63;;;;;;;;;;5015177;28;20037;-77
2021/04/15 13:44:45;;;;;;;10.68;8.30;;;;;;;;;;5014806;28;20397;-74
2021/04/15 13:47:30;;;;;;;7.57;6.20;;;;;;;;;;5014808;28;20091;-79
2021/04/15 13:49:56;;;;;;;8.30;6.47;;;;;;;;;;5015112;28;20028;-75
2021/04/15 13:52:32;;;;;;;6.38;5.28;;;;;;;;;;5014964;28;20057;-77
2021/04/15 13:55:18;;;;;;;10.25;5.85;;;;;;;;;;5014854;28;20026;-75
2021/04/15 13:57:45;;;;;;;7.53;4.60;;;;;;;;;;5014706;28;20030;-76
2021/04/15 14:00:13;;;;;;;6.15;4.20;;;;;;;;;;5014681;28;20101;-77
2021/04/15 14:02:42;;;;;;;5.97;3.97;;;;;;;;;;5014393;28;20041;-76
2021/04/15 14:05:19;;;;;;;6.07;4.57;;;;;;;;;;5014773;28;20049;-78
2021/04/15 14:07:45;;;;;;;7.78;6.80;;;;;;;;;;5014775;28;20030;-77
2021/04/15 14:10:14;;;;;;;6.22;4.95;;;;;;;;;;5014557;28;20033;-76
2021/04/15 14:12:59;;;;;;;9.13;7.00;;;;;;;;;;5014452;28;20053;-79
2021/04/15 14:15:34;;;;;;;9.18;6.93;;;;;;;;;;5013703;28;20488;-75
2021/04/15 14:18:19;;;;;;;6.93;4.80;;;;;;;;;;5014699;28;20026;-79
2021/04/15 14:20:50;;;;;;;7.45;6.20;;;;;;;;;;5014616;28;20026;-78
2021/04/15 14:23:22;;;;;;;6.05;4.07;;;;;;;;;;5014065;28;20033;-77
2021/04/15 14:25:48;;;;;;;12.73;8.80;;;;;;;;;;5014333;28;20038;-76
2021/04/15 14:28:17;;;;;;;11.13;7.13;;;;;;;;;;5016346;28;20058;-77
2021/04/15 14:30:44;;;;;;;6.32;5.60;;;;;;;;;;5033207;28;20580;-79
2021/04/15 14:33:28;;;;;;;10.15;6.70;;;;;;;;;;5034238;28;20357;-76
2021/04/15 14:35:54;;;;;;;5.70;4.75;;;;;;;;;;5034070;28;20067;-78
2021/04/15 14:38:31;;;;;;;5.60;4.00;;;;;;;;;;5033353;28;20464;-77
2021/04/15 14:40:58;;;;;;;5.07;4.38;;;;;;;;;;5033867;28;20030;-77
2021/04/15 14:43:30;;;;;;;6.05;4.32;;;;;;;;;;5032619;28;20029;-76
2021/04/15 14:45:57;;;;;;;5.57;4.50;;;;;;;;;;5025421;28;20103;-79
2021/04/15 14:48:30;;;;;;;6.82;5.57;;;;;;;;;;5032558;28;20428;-76
2021/04/15 14:51:23;;;;;;;9.43;7.03;;;;;;;;;;5013831;28;20044;-80
2021/04/15 14:53:49;;;;;;;4.72;3.15;;;;;;;;;;5012734;28;20484;-79
2021/04/15 14:56:18;;;;;;;5.88;4.72;;;;;;;;;;5013534;28;20097;-80
2021/04/15 14:58:46;;;;;;;5.47;4.90;;;;;;;;;;5024805;28;20060;-78
2021/04/15 15:01:14;;;;;;;5.57;4.70;;;;;;;;;;5033353;28;20029;-78
2021/04/15 15:03:41;;;;;;;10.38;7.53;;;;;;;;;;5033117;28;20476;-78
2021/04/15 15:06:08;;;;;;;13.73;9.70;;;;;;;;;;5032160;28;20496;-78
2021/04/15 15:08:38;;;;;;;5.93;5.07;;;;;;;;;;5033112;28;20064;-82
2021/04/15 15:11:04;;;;;;;6.47;5.30;;;;;;;;;;5032621;28;20495;-80
2021/04/15 15:13:41;;;;;;;9.23;7.20;;;;;;;;;;5032923;28;20082;-80
2021/04/15 15:16:10;;;;;;;6.20;4.47;;;;;;;;;;5033158;28;20034;-79
2021/04/15 15:18:36;;;;;;;8.98;5.40;;;;;;;;;;5031541;28;20460;-77
2021/04/15 15:21:22;;;;;;;7.70;5.57;;;;;;;;;;5032549;28;20025;-79
2021/04/15 15:24:01;;;;;;;8.25;5.97;;;;;;;;;;5032760;28;20049;-80
2021/04/15 15:26:33;;;;;;;9.55;7.63;;;;;;;;;;5031819;28;20107;-79
2021/04/15 15:29:01;;;;;;;5.88;5.28;;;;;;;;;;5029516;28;20063;-79
2021/04/15 15:31:42;;;;;;;14.15;10.38;;;;;;;;;;5033352;28;20480;-79
2021/04/15 15:34:27;;;;;;;9.73;7.05;;;;;;;;;;5032717;28;20048;-78
2021/04/15 15:36:54;;;;;;;14.50;9.05;;;;;;;;;;5033617;28;20079;-79
2021/04/15 15:39:22;;;;;;;7.80;5.97;;;;;;;;;;5033530;28;20029;-80
2021/04/15 15:41:52;;;;;;;7.63;6.22;;;;;;;;;;5032451;28;20091;-79
2021/04/15 15:44:18;;;;;;;8.73;6.85;;;;;;;;;;5031132;28;20029;-81
2021/04/15 15:46:50;;;;;;;10.02;7.75;;;;;;;;;;5033032;28;20057;-78
2021/04/15 15:49:17;;;;;;;8.98;7.75;;;;;;;;;;5036558;28;20033;-78
2021/04/15 15:51:49;;;;;;;9.00;6.47;;;;;;;;;;5039766;28;20033;-79
2021/04/15 15:54:34;;;;;;;8.52;6.13;;;;;;;;;;5052305;28;20025;-79
2021/04/15 15:57:02;;;;;;;11.35;6.82;;;;;;;;;;5041283;28;20103;-79
2021/04/15 15:59:34;;;;;;;8.10;6.03;;;;;;;;;;5032944;28;20029;-77
2021/04/15 16:02:00;;;;;;;11.68;8.23;;;;;;;;;;5032586;28;20036;-78
2021/04/15 16:04:28;;;;;;;19.27;11.82;;;;;;;;;;5030298;28;20399;-80
2021/04/15 16:07:12;;;;;;;13.02;7.82;;;;;;;;;;5033212;28;20085;-76
2021/04/15 16:09:43;;;;;;;16.55;9.40;;;;;;;;;;5033321;28;20492;-81
2021/04/15 16:12:27;;;;;;;17.38;12.15;;;;;;;;;;5033005;28;20500;-79
2021/04/15 16:14:54;;;;;;;16.73;12.27;;;;;;;;;;5032061;28;20033;-79
2021/04/15 16:17:20;;;;;;;15.07;10.98;;;;;;;;;;5032928;28;20030;-81
2021/04/15 16:19:46;;;;;;;9.85;8.05;;;;;;;;;;5033171;28;20022;-80
2021/04/15 16:22:12;;;;;;;14.18;9.30;;;;;;;;;;5033094;28;20136;-79
2021/04/15 16:24:38;;;;;;;7.75;6.03;;;;;;;;;;5037543;28;20033;-77
2021/04/15 16:27:06;;;;;;;9.10;7.03;;;;;;;;;;5041352;28;20033;-77
2021/04/15 16:29:33;;;;;;;10.18;8.18;;;;;;;;;;5032858;28;20021;-77
2021/04/15 16:31:59;;;;;;;8.25;5.55;;;;;;;;;;5030648;28;20384;-77
2021/04/15 16:34:27;;;;;;;8.07;5.65;;;;;;;;;;5030884;28;20049;-77
2021/04/15 16:36:56;;;;;;;9.73;7.30;;;;;;;;;;5033260;28;20033;-77
2021/04/15 16:39:22;;;;;;;10.85;7.57;;;;;;;;;;5038194;28;20377;-78
2021/04/15 16:41:49;;;;;;;8.77;6.65;;;;;;;;;;5037051;28;20021;-78
2021/04/15 16:44:16;;;;;;;5.55;4.82;;;;;;;;;;5036662;28;20044;-78
2021/04/15 16:46:42;;;;;;;9.57;6.65;;;;;;;;;;5036252;28;20092;-79
2021/04/15 16:49:08;;;;;;;7.38;6.10;;;;;;;;;;5036345;28;20369;-80
2021/04/15 16:51:35;;;;;;;7.70;6.07;;;;;;;;;;5036827;28;20025;-79
2021/04/15 16:54:01;;;;;;;8.27;6.03;;;;;;;;;;5042243;28;20036;-79
2021/04/15 16:56:27;;;;;;;6.75;6.00;;;;;;;;;;5050644;28;20018;-82
2021/04/15 16:58:53;;;;;;;8.65;5.82;;;;;;;;;;5038691;28;20040;-78
2021/04/15 17:01:20;;;;;;;6.53;4.68;;;;;;;;;;5056621;28;20064;-76
2021/04/15 17:03:46;;;;;;;10.20;6.72;;;;;;;;;;5056484;28;20028;-80
2021/04/15 17:06:31;;;;;;;9.80;6.43;;;;;;;;;;5056105;28;20036;-81
2021/04/15 17:08:57;;;;;;;7.13;5.30;;;;;;;;;;5056234;28;20025;-80
2021/04/15 17:11:24;;;;;;;7.28;6.10;;;;;;;;;;5056199;28;20025;-80
2021/04/15 17:13:51;;;;;;;8.63;6.95;;;;;;;;;;5056145;28;20476;-78
2021/04/15 17:16:18;;;;;;;7.70;6.13;;;;;;;;;;5035387;28;20036;-78
2021/04/15 17:18:44;;;;;;;7.40;6.65;;;;;;;;;;5039063;28;20456;-80
2021/04/15 17:21:11;;;;;;;8.80;6.97;;;;;;;;;;5035043;28;20021;-79
2021/04/15 17:23:38;;;;;;;11.30;8.55;;;;;;;;;;5035922;28;20095;-77
2021/04/15 17:26:05;;;;;;;8.98;7.32;;;;;;;;;;5035167;28;20189;-79
2021/04/15 17:28:32;;;;;;;8.80;6.63;;;;;;;;;;5033151;28;20095;-77
2021/04/15 17:30:58;;;;;;;9.63;7.38;;;;;;;;;;5035341;28;20384;-83
2021/04/15 17:33:26;;;;;;;10.20;7.22;;;;;;;;;;5034566;28;20456;-81
2021/04/15 17:35:53;;;;;;;7.68;6.70;;;;;;;;;;5034873;28;20041;-79
2021/04/15 17:38:19;;;;;;;7.20;6.15;;;;;;;;;;5034533;28;20034;-80
2021/04/15 17:40:47;;;;;;;8.50;5.90;;;;;;;;;;5037208;28;20097;-80
2021/04/15 17:43:13;;;;;;;12.68;7.10;;;;;;;;;;5042451;28;20830;-81
2021/04/15 17:45:39;;;;;;;8.93;6.93;;;;;;;;;;5045248;28;20949;-80
2021/04/15 17:48:06;;;;;;;11.25;7.35;;;;;;;;;;5035561;28;20030;-77
2021/04/15 17:51:00;;;;;;;12.18;7.28;;;;;;;;;;5052757;28;20451;-77
2021/04/15 17:53:27;;;;;;;8.23;6.75;;;;;;;;;;5050098;28;20533;-77
2021/04/15 17:55:53;;;;;;;11.50;8.45;;;;;;;;;;5050414;28;20021;-78
2021/04/15 17:58:20;;;;;;;7.63;6.22;;;;;;;;;;5035851;28;20036;-80
2021/04/15 18:00:47;;;;;;;9.27;7.22;;;;;;;;;;5034223;28;20024;-81
2021/04/15 18:03:13;;;;;;;8.88;7.05;;;;;;;;;;5034354;28;20060;-78
2021/04/15 18:05:40;;;;;;;7.57;5.65;;;;;;;;;;5034423;28;20487;-81
2021/04/15 18:08:07;;;;;;;6.80;5.25;;;;;;;;;;5033970;28;20112;-81
2021/04/15 18:10:35;;;;;;;7.28;6.47;;;;;;;;;;5034284;28;20029;-82
2021/04/15 18:13:01;;;;;;;6.28;4.88;;;;;;;;;;5034014;28;20113;-82
2021/04/15 18:15:28;;;;;;;5.93;5.30;;;;;;;;;;5034493;28;20087;-82
2021/04/15 18:17:54;;;;;;;5.88;4.95;;;;;;;;;;5033966;28;20040;-80
2021/04/15 18:20:22;;;;;;;6.65;5.43;;;;;;;;;;5034204;28;20032;-81
2021/04/15 18:22:49;;;;;;;5.40;4.90;;;;;;;;;;5033937;28;20025;-81
2021/04/15 18:25:17;;;;;;;5.38;4.55;;;;;;;;;;5033989;28;20033;-79
2021/04/15 18:27:43;;;;;;;6.47;5.05;;;;;;;;;;5033735;28;20079;-78
2021/04/15 18:30:14;;;;;;;6.25;4.78;;;;;;;;;;5033807;28;20061;-80
2021/04/15 18:32:40;;;;;;;6.72;5.45;;;;;;;;;;5033976;28;20480;-79
2021/04/15 18:35:07;;;;;;;7.78;5.43;;;;;;;;;;5033460;28;20036;-80
2021/04/15 18:37:33;;;;;;;5.22;4.72;;;;;;;;;;5033913;28;20022;-78
2021/04/15 18:39:59;;;;;;;5.70;5.15;;;;;;;;;;5033637;28;20052;-79
2021/04/15 18:42:25;;;;;;;6.15;5.38;;;;;;;;;;5033713;28;20029;-81
2021/04/15 18:44:51;;;;;;;7.38;5.28;;;;;;;;;;5033718;28;20029;-80
2021/04/15 18:47:17;;;;;;;6.32;5.07;;;;;;;;;;5033675;28;20373;-78
2021/04/15 18:49:43;;;;;;;9.15;6.93;;;;;;;;;;5033750;28;20384;-81
2021/04/15 18:52:10;;;;;;;9.85;7.93;;;;;;;;;;5033282;28;20032;-79
2021/04/15 18:54:36;;;;;;;16.23;13.38;;;;;;;;;;5033581;28;20386;-82
2021/04/15 18:57:03;;;;;;;20.17;12.60;;;;;;;;;;5033254;28;20057;-78
2021/04/15 18:59:32;;;;;;;14.70;10.90;;;;;;;;;;5033413;28;20040;-79
2021/04/15 19:01:58;;;;;;;16.33;12.52;;;;;;;;;;5032313;28;20026;-80
2021/04/15 19:04:25;;;;;;;11.15;8.68;;;;;;;;;;5033336;28;20029;-80
2021/04/15 19:06:51;;;;;;;16.13;12.13;;;;;;;;;;5033173;28;20037;-79
2021/04/15 19:09:18;;;;;;;15.32;8.82;;;;;;;;;;5033175;28;20514;-81
2021/04/15 19:11:45;;;;;;;10.32;8.32;;;;;;;;;;5033138;28;20423;-81
2021/04/15 19:14:12;;;;;;;13.77;8.32;;;;;;;;;;5033037;28;20476;-82
2021/04/15 19:16:38;;;;;;;14.50;10.80;;;;;;;;;;5015524;28;20365;-78
2021/04/15 19:19:04;;;;;;;16.92;12.13;;;;;;;;;;5032781;28;20057;-82
2021/04/15 19:21:31;;;;;;;13.95;10.20;;;;;;;;;;5033035;28;20091;-81
2021/04/15 19:23:57;;;;;;;12.40;8.60;;;;;;;;;;5032784;28;20465;-81
2021/04/15 19:26:23;;;;;;;9.90;7.95;;;;;;;;;;5032870;28;20037;-80
2021/04/15 19:28:49;;;;;;;8.02;6.68;;;;;;;;;;5032632;28;20045;-79
2021/04/15 19:31:18;;;;;;;13.48;9.07;;;;;;;;;;5032587;28;20100;-81
2021/04/15 19:33:44;;;;;;;15.15;11.68;;;;;;;;;;5032725;28;20029;-79
2021/04/15 19:36:10;;;;;;;10.48;8.82;;;;;;;;;;5032432;28;20045;-78
2021/04/15 19:38:37;;;;;;;9.38;6.65;;;;;;;;;;5032558;28;20104;-80
2021/04/15 19:41:03;;;;;;;8.32;5.93;;;;;;;;;;5014409;28;20048;-76
2021/04/15 19:43:29;;;;;;;6.13;5.45;;;;;;;;;;5032586;28;20401;-78
2021/04/15 19:45:56;;;;;;;8.80;5.47;;;;;;;;;;5032769;28;20040;-78
2021/04/15 19:48:24;;;;;;;6.90;5.63;;;;;;;;;;5032317;28;20037;-78
2021/04/15 19:50:52;;;;;;;7.97;6.07;;;;;;;;;;5032358;28;20499;-77
2021/04/15 19:53:19;;;;;;;7.65;6.10;;;;;;;;;;5032058;28;20044;-79
2021/04/15 19:55:45;;;;;;;7.47;5.43;;;;;;;;;;5032398;28;20022;-78
2021/04/15 19:58:13;;;;;;;7.28;5.88;;;;;;;;;;5032103;28;20021;-76
2021/04/15 20:00:40;;;;;;;6.95;5.22;;;;;;;;;;5032569;28;20044;-79
2021/04/15 20:03:07;;;;;;;8.77;7.63;;;;;;;;;;5031870;28;20454;-78
2021/04/15 20:05:33;;;;;;;7.25;5.60;;;;;;;;;;5032132;28;20046;-78
2021/04/15 20:08:00;;;;;;;8.02;5.53;;;;;;;;;;5031929;28;20083;-79
2021/04/15 20:10:32;;;;;;;6.90;5.93;;;;;;;;;;5031915;28;20033;-78
2021/04/15 20:12:58;;;;;;;8.73;6.05;;;;;;;;;;5031749;28;20033;-77
2021/04/15 20:15:24;;;;;;;6.57;5.82;;;;;;;;;;5032173;28;20021;-78
2021/04/15 20:17:50;;;;;;;7.10;5.55;;;;;;;;;;5032166;28;20060;-79
2021/04/15 20:20:18;;;;;;;8.60;5.80;;;;;;;;;;5014012;28;20021;-81
2021/04/15 20:22:45;;;;;;;8.05;6.32;;;;;;;;;;5031993;28;20045;-78
2021/04/15 20:25:13;;;;;;;9.15;6.82;;;;;;;;;;5031643;28;20033;-78
2021/04/15 20:27:40;;;;;;;8.57;6.30;;;;;;;;;;5031678;28;20057;-77
2021/04/15 20:30:07;;;;;;;11.95;8.55;;;;;;;;;;5031758;28;20046;-78
2021/04/15 20:32:33;;;;;;;10.57;8.23;;;;;;;;;;5032053;28;20082;-78
2021/04/15 20:34:59;;;;;;;7.93;6.22;;;;;;;;;;5031958;28;20533;-80
2021/04/15 20:37:27;;;;;;;13.85;10.52;;;;;;;;;;5031835;28;20032;-78
2021/04/15 20:39:53;;;;;;;11.73;8.95;;;;;;;;;;5031905;28;20033;-81
2021/04/15 20:42:19;;;;;;;9.43;7.55;;;;;;;;;;5031601;28;20434;-78
2021/04/15 20:44:45;;;;;;;14.25;9.05;;;;;;;;;;5031716;28;20076;-78
2021/04/15 20:47:12;;;;;;;17.02;13.10;;;;;;;;;;5031532;28;20092;-79
2021/04/15 20:49:38;;;;;;;7.22;6.47;;;;;;;;;;5031912;28;20036;-81